Armada, Michigan
Current Conditions -  °F | °C
As of 11:58 PM on Thursday 30 Oct 2014 (Local Time) from KMTC Reporting Station
Overcast Overcast  
Wind Chill: 44°   Ceiling: 4900
Heat Index: 47°   Visibility: 10mi
Dew Point: 37°   Wind: 6mph
Humidity: 69%   Direction: 220°SW
Pressure: 29.98"   Gusts: NA
Location:  42.84°N, 82.88°W
Report Text: KMTC 310358Z AUTO 22005KT 10SM OVC049 08/03 A2998 RMK AO2 SLP158 T00820029
Loading
Personal Weather Stations






























Interactive Weather Map
Tropical Storm Tracking
New forecast layout! Learn more

10-Day Weather Forecast

Advertisements
Track Severe Weather on mobile